Time;durP1;ratioP1;P1;durP2;ratioP2;P2;SDS_P1;SDS_P2;PMS_P1;PMS_P2;Temp;Humidity;BMP_temperature;BMP_pressure;BME280_temperature;BME280_humidity;BME280_pressure;Samples;Min_cycle;Max_cycle;Signal;HPM_P1;HPM_P2
2024/04/23 00:01:44;;;;;;;9.88;4.10;;;7.00;99.90;;;;;;5328249;26;20018;-81
2024/04/23 00:04:14;;;;;;;8.00;4.00;;;7.00;99.90;;;;;;5360847;26;20008;-80
2024/04/23 00:06:50;;;;;;;9.40;4.15;;;7.30;99.90;;;;;;5356075;26;20020;-80
2024/04/23 00:09:20;;;;;;;9.80;4.97;;;6.90;99.90;;;;;;5336668;26;20012;-81
2024/04/23 00:11:48;;;;;;;9.85;4.07;;;6.70;99.90;;;;;;5372587;26;20102;-79
2024/04/23 00:14:22;;;;;;;9.23;4.18;;;6.90;99.90;;;;;;5330069;26;20008;-79
2024/04/23 00:17:00;;;;;;;9.20;3.80;;;6.80;99.90;;;;;;5364103;26;20526;-79
2024/04/23 00:19:30;;;;;;;9.40;3.67;;;6.80;99.90;;;;;;5342015;26;19997;-80
2024/04/23 00:21:58;;;;;;;8.85;4.35;;;6.80;99.90;;;;;;5354699;26;20016;-80
2024/04/23 00:24:34;;;;;;;8.93;4.32;;;6.80;99.90;;;;;;5329981;26;20054;-78
2024/04/23 00:27:03;;;;;;;9.07;4.25;;;6.80;99.90;;;;;;5335938;26;20016;-80
2024/04/23 00:29:34;;;;;;;10.70;4.72;;;6.80;99.90;;;;;;5328098;26;20056;-79
2024/04/23 00:32:04;;;;;;;8.13;4.03;;;6.80;99.90;;;;;;5338896;26;20017;-78
2024/04/23 00:34:37;;;;;;;9.82;4.28;;;6.60;99.90;;;;;;5370162;26;20054;-78
2024/04/23 00:37:14;;;;;;;8.15;3.85;;;6.60;99.90;;;;;;5369505;26;20351;-80
2024/04/23 00:39:44;;;;;;;8.85;4.07;;;6.20;99.90;;;;;;5339244;26;20021;-79
2024/04/23 00:42:12;;;;;;;7.95;3.65;;;6.60;99.90;;;;;;5360918;26;20001;-79
2024/04/23 00:44:44;;;;;;;9.77;4.22;;;6.50;99.90;;;;;;5343527;26;20001;-77
2024/04/23 00:47:17;;;;;;;8.43;3.97;;;6.50;99.90;;;;;;5359265;26;20007;-80
2024/04/23 00:49:49;;;;;;;7.47;3.00;;;6.60;99.90;;;;;;5342590;26;20062;-79
2024/04/23 00:52:19;;;;;;;9.95;4.20;;;6.60;99.90;;;;;;5349532;26;20227;-78
2024/04/23 00:54:51;;;;;;;6.60;2.92;;;5.30;99.90;;;;;;5318116;26;20016;-77
2024/04/23 00:57:19;;;;;;;6.43;3.37;;;6.40;99.90;;;;;;5366874;26;20029;-77
2024/04/23 00:59:50;;;;;;;8.75;4.10;;;6.30;99.90;;;;;;5359288;26;20289;-76
2024/04/23 01:02:20;;;;;;;7.88;3.55;;;6.30;99.90;;;;;;5336697;26;20458;-78
2024/04/23 01:04:54;;;;;;;7.20;3.53;;;6.20;99.90;;;;;;5359911;26;20025;-80
2024/04/23 01:07:22;;;;;;;8.15;3.97;;;6.20;99.90;;;;;;5329328;26;19997;-79
2024/04/23 01:09:55;;;;;;;8.57;3.50;;;6.20;99.90;;;;;;5373283;26;20036;-77
2024/04/23 01:12:24;;;;;;;8.23;3.40;;;6.20;99.90;;;;;;5321836;26;20000;-79
2024/04/23 01:14:56;;;;;;;8.57;3.85;;;6.40;99.90;;;;;;5324248;26;20028;-80
2024/04/23 01:17:27;;;;;;;7.53;4.18;;;7.10;99.90;;;;;;5328985;26;19997;-78
2024/04/23 01:20:01;;;;;;;7.82;3.92;;;6.20;99.90;;;;;;5323827;26;20017;-79
2024/04/23 01:22:36;;;;;;;7.82;3.95;;;6.10;99.90;;;;;;5321451;26;20005;-78
2024/04/23 01:25:12;;;;;;;6.75;3.35;;;6.10;99.90;;;;;;5360838;26;20009;-78
2024/04/23 01:27:44;;;;;;;8.05;3.70;;;6.10;99.90;;;;;;5316501;26;20023;-77
2024/04/23 01:30:19;;;;;;;8.65;3.55;;;6.10;99.90;;;;;;5357768;26;20039;-77
2024/04/23 01:32:48;;;;;;;7.38;3.65;;;6.10;99.90;;;;;;5346739;26;20028;-77
2024/04/23 01:35:22;;;;;;;8.90;4.50;;;6.00;99.90;;;;;;5332551;26;20019;-78
2024/04/23 01:37:54;;;;;;;10.18;3.70;;;6.00;99.90;;;;;;5350135;26;20013;-78
2024/04/23 01:40:26;;;;;;;9.18;3.80;;;5.70;99.90;;;;;;5347676;26;20009;-77
2024/04/23 01:42:57;;;;;;;6.63;3.22;;;6.10;99.90;;;;;;5320610;26;20014;-78
2024/04/23 01:45:31;;;;;;;6.68;3.47;;;6.10;99.90;;;;;;5351653;26;20460;-78
2024/04/23 01:47:59;;;;;;;6.65;3.90;;;6.00;99.90;;;;;;5353997;26;20012;-77
2024/04/23 01:50:30;;;;;;;10.48;4.03;;;5.90;99.90;;;;;;5353214;26;20016;-79
2024/04/23 01:52:58;;;;;;;7.50;3.42;;;6.00;99.90;;;;;;5364595;26;20001;-80
2024/04/23 01:55:31;;;;;;;7.03;3.25;;;6.00;99.90;;;;;;5324812;26;20446;-78
2024/04/23 01:58:04;;;;;;;7.32;4.07;;;5.90;99.90;;;;;;5315944;26;20079;-77
2024/04/23 02:00:42;;;;;;;9.50;3.70;;;6.00;99.90;;;;;;5361078;26;20085;-79
2024/04/23 02:03:12;;;;;;;5.68;2.88;;;6.00;99.90;;;;;;5326833;26;20005;-79
2024/04/23 02:05:45;;;;;;;7.60;3.30;;;6.00;99.90;;;;;;5333395;26;20500;-78
2024/04/23 02:08:12;;;;;;;8.07;4.10;;;6.00;99.90;;;;;;5364314;26;20005;-76
2024/04/23 02:10:47;;;;;;;6.90;3.40;;;5.90;99.90;;;;;;5331224;26;20014;-76
2024/04/23 02:13:17;;;;;;;6.60;3.13;;;5.70;99.90;;;;;;5318172;26;20012;-76
2024/04/23 02:15:48;;;;;;;6.70;3.40;;;5.80;99.90;;;;;;5328150;26;20056;-82
2024/04/23 02:18:16;;;;;;;4.95;2.38;;;5.60;99.90;;;;;;5332118;26;20351;-79
2024/04/23 02:20:47;;;;;;;6.55;3.45;;;5.80;99.90;;;;;;5458405;21;20045;-81
2024/04/23 02:23:18;;;;;;;7.63;3.00;;;4.90;99.90;;;;;;5404088;26;20045;-81
2024/04/23 02:25:48;;;;;;;7.97;3.63;;;5.80;99.90;;;;;;5394120;26;20010;-79
2024/04/23 02:28:19;;;;;;;5.15;3.03;;;5.80;99.90;;;;;;5386417;26;19996;-79
2024/04/23 02:30:49;;;;;;;6.47;3.03;;;5.80;99.90;;;;;;5383162;26;20047;-79
2024/04/23 02:33:17;;;;;;;7.13;3.50;;;5.80;99.90;;;;;;5416320;26;20366;-78
2024/04/23 02:35:48;;;;;;;7.97;3.88;;;5.80;99.90;;;;;;5411997;26;20016;-81
2024/04/23 02:38:16;;;;;;;7.32;3.15;;;5.70;99.90;;;;;;5386705;26;20004;-77
2024/04/23 02:40:46;;;;;;;7.32;3.53;;;5.60;99.90;;;;;;5369351;26;19992;-79
2024/04/23 02:43:16;;;;;;;6.70;3.78;;;5.70;99.90;;;;;;5411911;26;20363;-78
2024/04/23 02:45:50;;;;;;;7.18;3.25;;;5.60;99.90;;;;;;5405047;26;20007;-74
2024/04/23 02:48:18;;;;;;;7.07;3.22;;;5.60;99.90;;;;;;5380821;26;19997;-80
2024/04/23 02:50:49;;;;;;;5.07;2.65;;;5.60;99.90;;;;;;5387930;26;19995;-81
2024/04/23 02:53:53;;;;;;;6.95;3.05;;;5.60;99.90;;;;;;5861976;20;20379;-79
2024/04/23 02:56:21;;;;;;;7.65;2.90;;;5.70;99.90;;;;;;5537093;25;20050;-78
2024/04/23 02:58:51;;;;;;;5.75;3.13;;;5.60;99.90;;;;;;5519509;25;20002;-77
2024/04/23 03:01:22;;;;;;;7.05;3.35;;;5.70;99.90;;;;;;5535582;25;19994;-78
2024/04/23 03:03:53;;;;;;;5.10;2.70;;;5.90;99.90;;;;;;5536107;25;20013;-77
2024/04/23 03:06:21;;;;;;;6.03;3.05;;;5.70;99.90;;;;;;5545008;25;20008;-80
2024/04/23 03:08:55;;;;;;;5.00;2.67;;;5.60;99.90;;;;;;5541603;25;19990;-78
2024/04/23 03:11:22;;;;;;;6.90;3.00;;;5.70;99.90;;;;;;5545238;25;20025;-80
2024/04/23 03:13:53;;;;;;;7.82;2.65;;;5.60;99.90;;;;;;5545025;25;19997;-78
2024/04/23 03:16:20;;;;;;;7.97;3.35;;;5.60;99.90;;;;;;5544109;25;20045;-78
2024/04/23 03:18:54;;;;;;;6.18;3.13;;;5.60;99.90;;;;;;5552988;25;19997;-81
2024/04/23 03:21:21;;;;;;;5.20;2.40;;;5.70;99.90;;;;;;5549425;25;19993;-79
2024/04/23 03:23:54;;;;;;;7.28;3.30;;;5.50;99.90;;;;;;5557190;25;20022;-81
2024/04/23 03:26:22;;;;;;;6.22;2.60;;;5.40;99.90;;;;;;5535978;25;20013;-79
2024/04/23 03:28:56;;;;;;;5.32;2.92;;;5.50;99.90;;;;;;5543184;25;19996;-81
2024/04/23 03:31:24;;;;;;;6.30;2.90;;;5.50;99.90;;;;;;5510096;25;19990;-80
2024/04/23 03:33:54;;;;;;;5.20;2.45;;;5.60;99.90;;;;;;5537301;25;19996;-79
2024/04/23 03:36:24;;;;;;;4.75;2.70;;;5.50;99.90;;;;;;5545272;25;20005;-80
2024/04/23 03:38:57;;;;;;;7.00;3.00;;;5.50;99.90;;;;;;5511496;25;19998;-80
2024/04/23 03:41:30;;;;;;;6.45;3.17;;;5.40;99.90;;;;;;5630712;20;20035;-80
2024/04/23 03:44:01;;;;;;;5.50;2.70;;;5.50;99.90;;;;;;5548772;25;20348;-77
2024/04/23 03:46:35;;;;;;;5.30;2.90;;;5.50;99.90;;;;;;5597408;25;20036;-81
2024/04/23 03:49:08;;;;;;;6.22;2.97;;;5.50;99.90;;;;;;5597849;25;20025;-81
2024/04/23 03:51:36;;;;;;;5.88;2.72;;;5.60;99.90;;;;;;5555925;25;20007;-79
2024/04/23 03:54:09;;;;;;;5.57;2.35;;;5.60;99.90;;;;;;5550250;25;20008;-78
2024/04/23 03:56:43;;;;;;;5.10;2.72;;;5.50;99.90;;;;;;5545457;25;20004;-81
2024/04/23 03:59:19;;;;;;;5.32;2.70;;;5.60;99.90;;;;;;5559911;25;19992;-81
2024/04/23 04:01:47;;;;;;;6.60;2.70;;;5.40;99.90;;;;;;5581276;25;20069;-79
2024/04/23 04:07:20;;;;;;;5.60;2.58;;;5.80;99.90;;;;;;5408753;26;20007;-81
2024/04/23 04:09:56;;;;;;;6.18;2.83;;;5.60;99.90;;;;;;5509185;25;20025;-79
2024/04/23 04:12:27;;;;;;;5.07;2.20;;;5.70;99.90;;;;;;5549758;25;20007;-80
2024/04/23 04:15:07;;;;;;;7.45;2.65;;;5.70;99.90;;;;;;5577766;25;20009;-79
2024/04/23 04:17:35;;;;;;;4.97;2.60;;;5.80;99.90;;;;;;5542806;25;19997;-79
2024/04/23 04:20:08;;;;;;;5.28;2.72;;;5.80;99.90;;;;;;5546701;25;20016;-78
2024/04/23 04:22:38;;;;;;;3.88;1.70;;;5.90;99.90;;;;;;5570664;25;19985;-79
2024/04/23 04:25:14;;;;;;;4.38;2.00;;;5.80;99.90;;;;;;5543352;25;20009;-80
2024/04/23 04:27:42;;;;;;;4.30;2.10;;;5.30;99.90;;;;;;5569721;25;20001;-80
2024/04/23 04:30:13;;;;;;;7.00;2.67;;;5.90;99.90;;;;;;5541593;25;20464;-78
2024/04/23 04:32:40;;;;;;;5.55;1.88;;;5.80;99.90;;;;;;5531800;25;20344;-80
2024/04/23 04:35:12;;;;;;;5.10;2.35;;;5.90;99.90;;;;;;5565736;25;20005;-80
2024/04/23 04:37:40;;;;;;;4.93;2.40;;;5.80;99.90;;;;;;5571906;25;20004;-78
2024/04/23 04:40:13;;;;;;;4.78;2.10;;;5.80;99.90;;;;;;5563415;25;20001;-77
2024/04/23 04:42:42;;;;;;;4.78;2.15;;;5.80;99.90;;;;;;5570904;25;20016;-80
2024/04/23 04:45:14;;;;;;;3.75;1.65;;;5.90;99.90;;;;;;5576853;25;20004;-80
2024/04/23 04:47:44;;;;;;;4.28;2.05;;;5.80;99.90;;;;;;5570830;25;20467;-80
2024/04/23 04:50:18;;;;;;;5.40;2.25;;;5.90;99.90;;;;;;5575531;25;20329;-81
2024/04/23 04:52:48;;;;;;;4.05;1.63;;;5.90;99.90;;;;;;5540699;25;20012;-78
2024/04/23 04:55:21;;;;;;;5.65;2.45;;;5.90;99.90;;;;;;5540971;25;20071;-81
2024/04/23 04:57:55;;;;;;;4.55;2.47;;;5.90;99.90;;;;;;5550358;20;20011;-81
2024/04/23 05:00:23;;;;;;;4.78;1.95;;;6.00;99.90;;;;;;5423111;26;20046;-80
2024/04/23 05:02:54;;;;;;;5.95;1.95;;;6.00;99.90;;;;;;5464002;26;20468;-78
2024/04/23 05:05:25;;;;;;;3.45;1.65;;;6.00;99.90;;;;;;5449486;26;20027;-78
2024/04/23 05:07:55;;;;;;;4.85;2.55;;;6.10;99.90;;;;;;5466513;26;19998;-79
2024/04/23 05:10:26;;;;;;;5.00;2.25;;;6.20;99.90;;;;;;5470364;26;20019;-79
2024/04/23 05:12:56;;;;;;;5.32;2.22;;;6.10;99.90;;;;;;5435478;26;19998;-80
2024/04/23 05:15:25;;;;;;;4.20;1.80;;;6.30;99.90;;;;;;5438090;26;20003;-78
2024/04/23 05:18:03;;;;;;;4.25;2.00;;;6.10;99.90;;;;;;5427975;26;20006;-79
2024/04/23 05:20:33;;;;;;;4.80;1.88;;;6.40;99.90;;;;;;5419086;26;20004;-80
2024/04/23 05:23:04;;;;;;;4.13;2.03;;;6.00;99.90;;;;;;5459844;26;19994;-79
2024/04/23 05:25:34;;;;;;;5.15;2.33;;;6.20;99.90;;;;;;5443376;26;20036;-77
2024/04/23 05:28:09;;;;;;;5.50;2.35;;;5.70;99.90;;;;;;5466984;25;20013;-78
2024/04/23 05:33:26;;;;;;;4.93;2.65;;;6.40;99.90;;;;;;5461577;26;20339;-79
2024/04/23 05:36:01;;;;;;;4.63;2.00;;;6.50;99.90;;;;;;5433174;26;20017;-78
2024/04/23 05:38:32;;;;;;;4.75;2.67;;;6.60;99.90;;;;;;5418117;26;20003;-80
2024/04/23 05:41:05;;;;;;;6.63;2.28;;;6.60;99.90;;;;;;5437664;26;20015;-77
2024/04/23 05:43:35;;;;;;;5.20;2.00;;;6.70;99.90;;;;;;5418634;26;20014;-76
2024/04/23 05:46:06;;;;;;;4.78;2.13;;;6.80;99.90;;;;;;5451370;26;20343;-78
2024/04/23 05:49:14;;;;;;;4.68;2.55;;;6.80;99.90;;;;;;5420486;26;20015;-78
2024/04/23 05:52:41;;;;;;;4.18;2.08;;;6.80;99.90;;;;;;5441084;26;20034;-79
2024/04/23 05:55:34;;;;;;;5.32;2.20;;;7.00;99.90;;;;;;5454477;26;20013;-79
2024/04/23 05:58:12;;;;;;;5.38;1.80;;;7.10;99.90;;;;;;5447751;26;20002;-77
2024/04/23 06:00:42;;;;;;;3.75;2.55;;;7.10;99.90;;;;;;5445162;25;20693;-77
2024/04/23 06:03:10;;;;;;;5.82;2.35;;;7.20;99.90;;;;;;5439635;26;20003;-75
2024/04/23 06:05:41;;;;;;;12.13;3.20;;;7.30;99.90;;;;;;5456605;26;19998;-77
2024/04/23 06:08:12;;;;;;;4.32;1.80;;;7.60;99.90;;;;;;5458450;25;20074;-76
2024/04/23 06:10:40;;;;;;;5.78;3.30;;;7.80;99.90;;;;;;5430384;25;20410;-78
2024/04/23 06:13:13;;;;;;;5.40;1.98;;;8.10;99.90;;;;;;5435694;26;19999;-76
2024/04/23 06:15:43;;;;;;;3.78;2.10;;;8.10;99.90;;;;;;5416721;26;20007;-77
2024/04/23 06:18:20;;;;;;;5.38;2.38;;;8.20;99.90;;;;;;5414079;26;20007;-77
2024/04/23 06:20:52;;;;;;;4.85;2.13;;;8.30;99.90;;;;;;5415751;26;20489;-77
2024/04/23 06:23:27;;;;;;;7.43;2.70;;;8.30;99.90;;;;;;5441411;25;20331;-77
2024/04/23 06:25:58;;;;;;;5.47;2.92;;;8.10;99.90;;;;;;5402576;26;20020;-78
2024/04/23 06:28:33;;;;;;;7.22;2.78;;;8.20;99.90;;;;;;5445560;26;20019;-76
2024/04/23 06:31:05;;;;;;;12.80;2.45;;;8.50;99.90;;;;;;5379669;26;20460;-76
2024/04/23 06:33:33;;;;;;;8.68;3.53;;;8.50;99.90;;;;;;5366937;26;20372;-77
2024/04/23 06:36:07;;;;;;;6.57;2.38;;;8.50;99.90;;;;;;5344338;26;20374;-77
2024/04/23 06:38:35;;;;;;;5.38;2.33;;;8.60;99.90;;;;;;5387166;26;19999;-76
2024/04/23 06:41:05;;;;;;;4.70;2.20;;;8.40;99.90;;;;;;5348226;26;20032;-74
2024/04/23 06:43:36;;;;;;;5.72;2.33;;;8.60;99.90;;;;;;5360134;26;20032;-77
2024/04/23 06:46:07;;;;;;;3.10;1.52;;;8.60;99.90;;;;;;5353570;26;20080;-77
2024/04/23 06:48:35;;;;;;;7.38;1.95;;;8.70;99.90;;;;;;5337623;26;20012;-76
2024/04/23 06:51:09;;;;;;;5.57;2.35;;;8.80;99.90;;;;;;5370439;26;20005;-77
2024/04/23 06:53:37;;;;;;;3.75;1.90;;;8.80;99.90;;;;;;5375238;26;20387;-78
2024/04/23 06:56:09;;;;;;;5.68;2.78;;;8.70;99.90;;;;;;5373870;26;19997;-78
2024/04/23 06:58:42;;;;;;;3.53;1.70;;;8.60;99.90;;;;;;5387439;26;20004;-79
2024/04/23 07:01:14;;;;;;;5.30;2.15;;;8.20;99.90;;;;;;5384220;26;20006;-78
2024/04/23 07:03:43;;;;;;;5.85;2.72;;;8.10;99.90;;;;;;5468938;26;20055;-79
2024/04/23 07:06:13;;;;;;;4.82;1.80;;;8.70;99.90;;;;;;5439382;26;20007;-78
2024/04/23 07:08:47;;;;;;;5.03;2.25;;;8.70;99.90;;;;;;5434318;26;20011;-80
2024/04/23 07:11:16;;;;;;;5.40;2.13;;;8.60;99.90;;;;;;5420414;25;20006;-79
2024/04/23 07:13:51;;;;;;;6.07;2.97;;;8.70;99.90;;;;;;5432433;26;20026;-79
2024/04/23 07:16:19;;;;;;;4.68;2.15;;;8.40;99.90;;;;;;5422262;26;19998;-77
2024/04/23 07:18:50;;;;;;;5.85;1.60;;;8.60;99.90;;;;;;5451772;26;19999;-79
2024/04/23 07:21:28;;;;;;;3.75;2.13;;;8.90;99.90;;;;;;5464612;26;20044;-79
2024/04/23 07:24:01;;;;;;;5.95;2.67;;;8.70;99.90;;;;;;5429763;26;20004;-77
2024/04/23 07:26:29;;;;;;;4.72;2.60;;;8.80;99.90;;;;;;5457512;26;20030;-78
2024/04/23 07:29:03;;;;;;;4.07;2.00;;;8.70;99.90;;;;;;5461802;26;20031;-80
2024/04/23 07:31:33;;;;;;;7.95;2.33;;;8.80;99.90;;;;;;5470825;25;20009;-79
2024/04/23 07:34:02;;;;;;;27.38;5.45;;;8.90;99.90;;;;;;5442820;26;19992;-80
2024/04/23 07:36:34;;;;;;;8.68;2.67;;;8.80;99.90;;;;;;5428373;26;20035;-80
2024/04/23 07:39:02;;;;;;;5.55;2.47;;;9.00;99.90;;;;;;5422314;26;20006;-79
2024/04/23 07:41:35;;;;;;;8.07;2.20;;;8.70;99.90;;;;;;5428656;26;19999;-79
2024/04/23 07:44:08;;;;;;;7.47;2.80;;;8.60;99.90;;;;;;5426285;26;20283;-79
2024/04/23 07:46:36;;;;;;;9.35;2.80;;;8.60;99.90;;;;;;5454604;26;20043;-78
2024/04/23 07:49:07;;;;;;;6.93;3.05;;;8.70;99.90;;;;;;5447662;25;20008;-80
2024/04/23 07:51:38;;;;;;;6.45;2.83;;;8.60;99.90;;;;;;5465407;26;20006;-78
2024/04/23 07:54:12;;;;;;;6.13;1.95;;;8.70;99.90;;;;;;5473512;26;19999;-79
2024/04/23 07:56:40;;;;;;;7.30;2.90;;;7.50;99.90;;;;;;5462805;26;20011;-79
2024/04/23 07:59:17;;;;;;;7.03;2.53;;;8.60;99.90;;;;;;5424458;26;20018;-79
2024/04/23 08:01:46;;;;;;;11.20;5.22;;;8.70;99.90;;;;;;5462347;26;19997;-78
2024/04/23 08:04:17;;;;;;;9.20;2.58;;;8.70;99.90;;;;;;5467716;26;20002;-79
2024/04/23 08:06:46;;;;;;;9.43;2.38;;;8.60;99.90;;;;;;5407968;26;20035;-79
2024/04/23 08:09:16;;;;;;;8.95;2.90;;;8.70;99.90;;;;;;5438635;26;20002;-77
2024/04/23 08:11:44;;;;;;;5.90;2.35;;;8.70;99.90;;;;;;5415341;26;20005;-76
2024/04/23 08:14:17;;;;;;;6.30;2.53;;;8.60;99.90;;;;;;5446013;26;20393;-78
2024/04/23 08:16:46;;;;;;;7.22;2.55;;;8.60;99.90;;;;;;5431100;26;20007;-80
2024/04/23 08:19:18;;;;;;;4.45;1.90;;;8.60;99.90;;;;;;5446482;25;20059;-78
2024/04/23 08:21:51;;;;;;;6.03;2.65;;;8.70;99.90;;;;;;5449774;26;20531;-78
2024/04/23 08:24:19;;;;;;;5.57;2.80;;;8.70;99.90;;;;;;5413532;26;20017;-78
2024/04/23 08:26:56;;;;;;;5.43;2.78;;;8.60;99.90;;;;;;5412665;26;20003;-78
2024/04/23 08:29:27;;;;;;;5.97;2.63;;;8.70;99.90;;;;;;5457429;26;20007;-78
2024/04/23 08:31:57;;;;;;;5.20;3.10;;;8.60;99.90;;;;;;5493138;26;20014;-77
2024/04/23 08:34:26;;;;;;;8.18;3.10;;;8.70;99.90;;;;;;5417467;26;20052;-77
2024/04/23 08:36:59;;;;;;;6.57;2.92;;;8.70;99.90;;;;;;5437125;26;20349;-78
2024/04/23 08:39:27;;;;;;;6.20;2.75;;;8.80;99.90;;;;;;5430099;26;20011;-78
2024/04/23 08:42:00;;;;;;;5.20;2.28;;;8.80;99.90;;;;;;5407890;26;20009;-78
2024/04/23 08:44:36;;;;;;;6.18;3.00;;;8.80;99.90;;;;;;5430751;26;19999;-79
2024/04/23 08:47:07;;;;;;;5.97;3.10;;;8.90;99.90;;;;;;5441707;26;19999;-79
2024/04/23 08:49:37;;;;;;;7.60;3.22;;;9.00;99.90;;;;;;5451666;26;20023;-79
2024/04/23 08:52:12;;;;;;;7.47;4.13;;;9.00;99.90;;;;;;5464855;26;20006;-78
2024/04/23 08:54:41;;;;;;;7.50;2.80;;;9.00;99.90;;;;;;5459162;26;19988;-77
2024/04/23 08:57:16;;;;;;;5.93;2.85;;;9.10;99.90;;;;;;5439893;26;20006;-78
2024/04/23 08:59:49;;;;;;;7.43;3.72;;;9.30;99.90;;;;;;5440713;26;20014;-79
2024/04/23 09:02:28;;;;;;;8.70;4.03;;;9.50;99.90;;;;;;5418088;26;19999;-78
2024/04/23 09:05:02;;;;;;;7.25;3.63;;;9.50;99.90;;;;;;5442953;26;20011;-79
2024/04/23 09:07:37;;;;;;;5.27;2.80;;;9.60;99.90;;;;;;5447951;26;20052;-77
2024/04/23 09:10:10;;;;;;;7.00;2.53;;;9.60;99.90;;;;;;5456998;26;20287;-78
2024/04/23 09:12:45;;;;;;;5.23;2.93;;;9.60;99.90;;;;;;5463404;25;20002;-76
2024/04/23 09:15:21;;;;;;;9.38;4.07;;;9.60;99.90;;;;;;5416162;26;20023;-78
2024/04/23 09:17:54;;;;;;;6.95;3.95;;;9.60;99.90;;;;;;5428250;26;19995;-76
2024/04/23 09:20:25;;;;;;;5.90;2.47;;;9.50;99.90;;;;;;5443114;26;20011;-77
2024/04/23 09:23:00;;;;;;;8.07;3.58;;;9.60;99.90;;;;;;5409015;26;20050;-77
2024/04/23 09:25:36;;;;;;;7.88;3.40;;;9.60;99.90;;;;;;5422802;26;20003;-77
2024/04/23 09:28:07;;;;;;;5.47;2.83;;;9.70;99.90;;;;;;5430546;26;20014;-77
2024/04/23 09:30:44;;;;;;;7.95;3.67;;;9.70;99.90;;;;;;5444469;26;20007;-76
2024/04/23 09:33:13;;;;;;;8.43;4.03;;;9.80;99.90;;;;;;5398036;26;20019;-77
2024/04/23 09:36:01;;;;;;;6.18;3.47;;;9.90;99.90;;;;;;5432967;26;20489;-77
2024/04/23 09:38:41;;;;;;;8.23;3.13;;;10.00;99.90;;;;;;5444875;26;20319;-76
2024/04/23 09:41:12;;;;;;;8.65;3.47;;;10.10;99.90;;;;;;5402927;26;20595;-77
2024/04/23 09:43:40;;;;;;;6.43;3.42;;;10.10;99.90;;;;;;5403617;26;20013;-75
2024/04/23 09:46:33;;;;;;;6.80;3.20;;;10.20;99.90;;;;;;5482245;26;20007;-78
2024/04/23 09:49:06;;;;;;;6.70;3.35;;;10.20;99.90;;;;;;5440937;26;19999;-77
2024/04/23 09:51:33;;;;;;;9.30;3.38;;;10.30;99.90;;;;;;5448862;26;20018;-77
2024/04/23 09:54:14;;;;;;;6.25;3.28;;;10.30;99.90;;;;;;5419507;26;20003;-76
2024/04/23 09:56:42;;;;;;;7.78;3.20;;;10.40;99.90;;;;;;5420310;26;20000;-78
2024/04/23 09:59:16;;;;;;;6.82;2.65;;;10.50;99.90;;;;;;5370019;26;20012;-77
2024/04/23 10:01:56;;;;;;;6.00;3.35;;;10.50;99.90;;;;;;5364901;26;20009;-77
2024/04/23 10:04:27;;;;;;;8.45;3.63;;;10.50;99.90;;;;;;5369896;26;20019;-78
2024/04/23 10:07:08;;;;;;;5.95;2.85;;;10.60;99.90;;;;;;5363299;26;20015;-78
2024/04/23 10:09:41;;;;;;;11.35;2.92;;;10.70;99.90;;;;;;5372724;26;19996;-79
2024/04/23 10:12:23;;;;;;;6.32;3.53;;;10.80;99.90;;;;;;5399844;26;20000;-78
2024/04/23 10:15:08;;;;;;;6.30;3.40;;;11.00;99.90;;;;;;5404951;26;20019;-79
2024/04/23 10:17:47;;;;;;;5.93;2.95;;;11.10;99.90;;;;;;5381364;26;20000;-77
2024/04/23 10:20:25;;;;;;;7.25;3.33;;;11.20;99.90;;;;;;5464580;26;20007;-77
2024/04/23 10:23:01;;;;;;;7.00;3.67;;;11.30;99.90;;;;;;5376259;26;20046;-79
2024/04/23 10:25:32;;;;;;;8.95;3.63;;;11.70;99.90;;;;;;5423163;26;20486;-77
2024/04/23 10:28:05;;;;;;;5.32;2.80;;;11.30;99.90;;;;;;5376887;26;20069;-78
2024/04/23 10:30:38;;;;;;;6.32;2.83;;;11.30;99.90;;;;;;5396472;26;20008;-76
2024/04/23 10:33:09;;;;;;;7.47;3.90;;;11.30;99.90;;;;;;5400497;26;20016;-79
2024/04/23 10:35:42;;;;;;;6.55;3.80;;;11.30;99.90;;;;;;5372113;26;20000;-76
2024/04/23 10:38:15;;;;;;;6.63;3.53;;;11.40;99.90;;;;;;5367902;26;20018;-76
2024/04/23 10:40:51;;;;;;;6.88;4.10;;;11.30;99.90;;;;;;5375451;26;20005;-78
2024/04/23 10:43:27;;;;;;;5.97;3.08;;;11.60;99.90;;;;;;5384932;26;20001;-76
2024/04/23 10:46:00;;;;;;;6.43;3.58;;;11.70;99.90;;;;;;5377331;26;20018;-79
2024/04/23 10:48:36;;;;;;;6.20;3.45;;;11.70;99.90;;;;;;5412414;26;20404;-76
2024/04/23 10:51:09;;;;;;;6.13;3.20;;;11.90;99.90;;;;;;5405010;26;20535;-75
2024/04/23 10:53:48;;;;;;;7.00;3.88;;;12.00;99.90;;;;;;5392082;26;20546;-76
2024/04/23 10:56:26;;;;;;;9.98;3.35;;;12.10;99.90;;;;;;5365998;26;20086;-77
2024/04/23 10:59:03;;;;;;;5.18;2.70;;;12.20;99.90;;;;;;5411408;26;19999;-76
2024/04/23 11:01:49;;;;;;;6.15;3.55;;;12.30;99.90;;;;;;5438964;26;20013;-77
2024/04/23 11:04:29;;;;;;;8.10;3.95;;;12.40;99.90;;;;;;5406444;26;20017;-77
2024/04/23 11:07:07;;;;;;;6.00;3.50;;;12.50;99.90;;;;;;5433014;26;20014;-76
2024/04/23 11:09:38;;;;;;;7.72;3.92;;;12.60;99.90;;;;;;5390834;26;19995;-77
2024/04/23 11:12:20;;;;;;;7.10;3.97;;;12.70;99.90;;;;;;5464458;26;20043;-76
2024/04/23 11:14:49;;;;;;;6.97;3.53;;;12.70;99.90;;;;;;5441746;26;20006;-77
2024/04/23 11:17:19;;;;;;;6.80;3.70;;;12.70;99.90;;;;;;5463350;26;20016;-77
2024/04/23 11:19:56;;;;;;;6.20;3.22;;;12.80;99.90;;;;;;5465951;26;20416;-76
2024/04/23 11:22:35;;;;;;;9.40;3.92;;;12.90;99.90;;;;;;5440889;26;20021;-77
2024/04/23 11:25:04;;;;;;;6.28;3.65;;;13.00;99.90;;;;;;5421552;26;20010;-77
2024/04/23 11:27:39;;;;;;;6.72;3.60;;;13.10;99.80;;;;;;5418499;26;20021;-78
2024/04/23 11:30:18;;;;;;;5.05;3.30;;;13.10;99.80;;;;;;5422894;26;20442;-78
2024/04/23 11:32:48;;;;;;;6.45;3.30;;;13.30;99.90;;;;;;5424950;26;20007;-79
2024/04/23 11:35:24;;;;;;;4.72;2.90;;;13.30;98.90;;;;;;5452461;26;19999;-76
2024/04/23 11:37:57;;;;;;;4.18;2.17;;;13.20;98.80;;;;;;5454299;26;20083;-79
2024/04/23 11:40:26;;;;;;;6.50;3.50;;;13.10;98.70;;;;;;5435238;26;20000;-81
2024/04/23 11:42:56;;;;;;;6.65;3.10;;;13.00;98.10;;;;;;5454246;26;20002;-80
2024/04/23 11:45:24;;;;;;;7.10;3.47;;;13.10;98.30;;;;;;5422854;26;20462;-79
2024/04/23 11:47:55;;;;;;;4.43;2.88;;;13.20;98.70;;;;;;5453449;26;20010;-80
2024/04/23 11:50:26;;;;;;;5.45;3.30;;;12.80;98.50;;;;;;5455990;26;20018;-78
2024/04/23 11:52:57;;;;;;;5.55;3.85;;;13.20;97.90;;;;;;5453280;25;20341;-79
2024/04/23 11:55:25;;;;;;;6.38;3.47;;;13.10;98.30;;;;;;5440617;26;20015;-78
2024/04/23 11:57:56;;;;;;;4.72;3.10;;;13.10;98.80;;;;;;5441682;26;20018;-76
2024/04/23 12:00:27;;;;;;;7.63;2.92;;;13.10;99.10;;;;;;5453601;26;20014;-81
2024/04/23 12:02:58;;;;;;;5.43;3.20;;;13.00;98.40;;;;;;5444678;26;20043;-80
2024/04/23 12:05:28;;;;;;;4.30;2.58;;;13.00;98.60;;;;;;5452974;26;20015;-79
2024/04/23 12:07:59;;;;;;;5.72;3.30;;;13.10;99.30;;;;;;5414490;26;20053;-78
2024/04/23 12:10:28;;;;;;;5.32;3.22;;;13.10;99.40;;;;;;5435922;26;20032;-79
2024/04/23 12:12:59;;;;;;;5.78;3.38;;;13.00;99.60;;;;;;5450295;26;20461;-78
2024/04/23 12:15:27;;;;;;;5.47;2.47;;;13.00;99.30;;;;;;5457459;26;20453;-82
2024/04/23 12:17:58;;;;;;;4.43;2.95;;;12.80;99.90;;;;;;5457935;26;20027;-80
2024/04/23 12:20:28;;;;;;;4.78;2.67;;;12.80;99.90;;;;;;5443250;26;20014;-80
2024/04/23 12:23:11;;;;;;;4.40;2.53;;;12.70;99.90;;;;;;5470306;26;20007;-78
2024/04/23 12:25:40;;;;;;;;;;;12.70;99.90;;;;;;5452050;26;20074;-82
2024/04/23 12:28:13;;;;;;;5.18;2.65;;;12.80;99.90;;;;;;5429855;26;19924;-79
2024/04/23 12:30:41;;;;;;;5.90;2.88;;;12.80;99.90;;;;;;5462504;26;20011;-83
2024/04/23 12:33:12;;;;;;;5.32;2.03;;;12.90;99.90;;;;;;5454845;26;20456;-77
2024/04/23 12:35:45;;;;;;;6.80;1.67;;;13.00;99.90;;;;;;5470832;26;20359;-78
2024/04/23 12:38:17;;;;;;;3.50;1.92;;;13.00;99.90;;;;;;5434094;26;20039;-78
2024/04/23 12:40:46;;;;;;;4.30;2.05;;;13.00;99.20;;;;;;5432833;26;20522;-76
2024/04/23 12:43:17;;;;;;;4.90;2.30;;;13.00;98.50;;;;;;5448816;26;20059;-82
2024/04/23 12:45:44;;;;;;;7.63;2.97;;;12.90;98.50;;;;;;5444905;26;20006;-79
2024/04/23 12:48:16;;;;;;;5.05;2.15;;;13.00;98.70;;;;;;5440422;26;20013;-80
2024/04/23 12:50:47;;;;;;;4.47;2.78;;;13.00;99.00;;;;;;5423131;26;20029;-77
2024/04/23 12:53:18;;;;;;;3.08;1.88;;;13.00;98.70;;;;;;5431468;26;20003;-81
2024/04/23 12:55:48;;;;;;;5.90;2.15;;;13.00;98.60;;;;;;5405672;26;19991;-77
2024/04/23 12:58:18;;;;;;;3.67;2.17;;;12.90;99.10;;;;;;5472693;26;20003;-76
2024/04/23 13:00:46;;;;;;;4.25;2.50;;;13.00;99.20;;;;;;5459808;26;20315;-80
2024/04/23 13:03:16;;;;;;;4.03;1.98;;;13.00;99.90;;;;;;5465179;26;20466;-78
2024/04/23 13:05:48;;;;;;;4.05;2.20;;;13.00;99.20;;;;;;5423422;26;20021;-80
2024/04/23 13:08:21;;;;;;;5.88;2.58;;;13.00;98.10;;;;;;5441115;26;20419;-79
2024/04/23 13:10:48;;;;;;;;;;;13.00;98.90;;;;;;5440567;26;20006;-77
2024/04/23 13:13:19;;;;;;;3.33;2.30;;;13.00;98.40;;;;;;5464835;26;19934;-80
2024/04/23 13:15:48;;;;;;;5.38;2.88;;;13.00;98.20;;;;;;5455084;26;19999;-77
2024/04/23 13:18:18;;;;;;;5.78;2.25;;;12.90;97.90;;;;;;5441666;25;20052;-77
2024/04/23 13:20:49;;;;;;;4.47;2.15;;;12.90;97.80;;;;;;5427225;26;20004;-80
2024/04/23 13:23:19;;;;;;;3.75;2.30;;;12.90;97.90;;;;;;5450610;26;20066;-77
2024/04/23 13:25:47;;;;;;;4.93;2.25;;;12.80;98.00;;;;;;5425446;26;20082;-83
2024/04/23 13:28:20;;;;;;;4.60;2.53;;;12.90;98.40;;;;;;5471238;26;20006;-78